Latest Coastal Weather Observations for Groote Eylandt Airport

IDD60701

Issued at 7:55 pm CST Wednesday 1 October 2014 (issued every 10 minutes, with the page automatically refreshed every 10 minutes)

About coastal observations | Map of coastal stations | Coastal observations for NT | Marine services | Other Formats
Station Details ID: 014518 Name: GROOTE EYLANDT AIRPORT Lat: -13.97 Lon: 136.46 Height: 13.7 m
Data from the previous 72 hours. | See also: Recent months at Groote Eylandt Airport
Date/Time
CST
Temp

°C
Wind Pressure Rain
since 9am
mm
Weather Cloud Vis
km
Sea
Height
m
Swell
Dir
 
Speed
knots
Gust
knots
hPa Trend Height
m
Period
s
Dir
01/07:30pm 26.0 S 4 5 1012.5 - 0.0 - - - - - - -
01/07:00pm 26.2 S 3 5 1012.2 - 0.0 - - - - - - -
01/06:30pm 27.6 WNW 4 7 1011.8 - 0.0 - - - - - - -
01/06:00pm 28.0 NW 7 9 1011.5 - 0.0 - - - - - - -
01/05:30pm 29.3 WNW 7 10 1011.2 - 0.0 - - - - - - -
01/05:00pm 30.0 W 7 10 1011.0 - 0.0 - - - - - - -
01/04:30pm 30.3 W 8 11 1011.0 - 0.0 - - - - - - -
01/04:00pm 31.2 W 6 8 1010.9 - 0.0 - - 10 - - - -
01/03:30pm 31.0 W 7 11 1011.1 - 0.0 - - 10 - - - -
01/03:00pm 30.9 WSW 7 11 1011.3 - 0.0 - - 10 - - - -
01/02:30pm 30.9 SW 8 14 1011.6 - 0.0 - - 10 - - - -
01/02:00pm 32.0 SW 9 16 1011.5 - 0.0 - - 10 - - - -
01/01:30pm 34.8 SE 9 14 1011.5 - 0.0 - - 10 - - - -
01/01:00pm 33.9 SSE 10 16 1011.7 - 0.0 - - 10 - - - -
01/12:30pm 34.5 E 15 19 1012.2 - 0.0 - - 10 - - - -
01/12:00pm 33.7 E 11 15 1012.7 - 0.0 - - 10 - - - -
01/11:30am 33.4 NE 8 11 1013.2 - 0.0 - - 10 - - - -
01/11:00am 32.1 SE 11 17 1013.8 - 0.0 - - 10 - - - -
01/10:30am 32.0 NE 7 13 1014.1 - 0.0 - - 10 - - - -
01/10:00am 31.2 NNE 8 13 1014.3 - 0.0 - - 10 - - - -
01/09:30am 29.7 NE 8 12 1014.5 - 0.0 - - 10 - - - -
01/09:00am 29.0 NNE 9 12 1014.7 - 0.0 - - 10 - - - -
01/08:30am 27.8 ENE 9 12 1014.6 - 0.0 - - 10 - - - -
01/08:00am 26.8 NE 9 12 1014.5 - 0.0 - - 10 - - - -
01/07:30am 23.5 E 4 5 1014.2 - 0.0 - - 10 - - - -
01/07:00am 20.5 CALM 0 0 1013.9 - 0.0 - - 10 - - - -
01/06:30am 18.4 CALM 0 0 1013.6 - 0.0 - - 10 - - - -
01/06:00am 18.2 E 3 5 1013.6 - 0.0 - - 10 - - - -
01/05:30am 18.5 CALM 0 0 1013.2 - 0.0 - - 10 - - - -
01/05:00am 18.3 E 3 10 1012.8 - 0.0 - - 10 - - - -
01/04:30am 17.8 CALM 0 0 1012.4 - 0.0 - - 10 - - - -
01/04:00am 18.4 CALM 0 0 1012.1 - 0.0 - - 10 - - - -
01/03:30am 18.2 CALM 0 0 1012.2 - 0.0 - - - - - - -
01/03:00am 18.6 CALM 0 0 1012.5 - 0.0 - - - - - - -
01/02:30am 18.6 CALM 0 0 1012.8 - 0.0 - - - - - - -
01/02:00am 19.0 CALM 0 0 1013.0 - 0.0 - - - - - - -
01/01:30am 19.1 CALM 0 0 1013.2 - 0.0 - - - - - - -
01/01:00am 19.5 CALM 0 0 1013.6 - 0.0 - - - - - - -
01/12:30am 19.9 CALM 0 0 1013.7 - 0.0 - - - - - - -
01/12:00am 20.6 E 0 0 1014.2 - 0.0 - - - - - - -
 
Date/Time
CST
Temp

°C
Wind Pressure Rain
since 9am
mm
Weather Cloud Vis
km
Sea
Height
m
Swell
Dir
 
Speed
knots
Gust
knots
hPa Trend Height
m
Period
s
Dir
30/11:30pm 21.0 CALM 0 0 1014.4 - 0.0 - - - - - - -
30/11:00pm 21.4 CALM 0 0 1014.6 - 0.0 - - - - - - -
30/10:30pm 21.9 CALM 0 0 1014.8 - 0.0 - - - - - - -
30/10:00pm 22.5 CALM 0 0 1014.7 - 0.0 - - - - - - -
30/09:30pm 23.5 CALM 0 3 1014.6 - 0.0 - - - - - - -
30/09:00pm 24.1 E 3 4 1014.4 - 0.0 - - - - - - -
30/08:30pm 24.8 E 4 6 1014.3 - 0.0 - - - - - - -
30/08:00pm 25.2 E 4 5 1014.0 - 0.0 - - - - - - -
30/07:30pm 26.0 ENE 6 8 1013.6 - 0.0 - - - - - - -
30/07:00pm 26.7 E 6 8 1013.3 - 0.0 - - - - - - -
30/06:30pm 27.5 ENE 6 7 1012.9 - 0.0 - - - - - - -
30/06:00pm 28.3 E 7 9 1012.5 - 0.0 - - - - - - -
30/05:30pm 29.1 ENE 8 10 1012.2 - 0.0 - - - - - - -
30/05:00pm 29.4 ENE 9 13 1011.9 - 0.0 - - - - - - -
30/04:30pm 29.5 NE 9 14 1011.9 - 0.0 - - - - - - -
30/04:00pm 30.2 E 11 16 1011.8 - 0.0 - - - - - - -
30/03:30pm 30.6 ENE 12 19 1011.9 - 0.0 - - - - - - -
30/03:00pm 30.4 NE 12 19 1011.9 - 0.0 - - - - - - -
30/02:30pm 31.0 E 13 19 1011.8 - 0.0 - - - - - - -
30/02:00pm 31.1 ENE 13 19 1012.2 - 0.0 - - - - - - -
30/01:30pm 31.9 NE 12 16 1012.2 - 0.0 - - - - - - -
30/01:00pm 32.0 E 13 20 1012.5 - 0.0 - Partly cloudy - - - - -
30/12:30pm 32.2 E 12 18 1012.8 - 0.0 - - - - - - -
30/12:00pm 31.7 ENE 13 17 1013.4 - 0.0 - - - - - - -
30/11:30am 32.4 ENE 12 16 1013.9 - 0.0 - - - - - - -
30/11:00am 32.1 NE 9 17 1014.4 - 0.0 - - - - - - -
30/10:30am 31.0 NE 11 15 1014.7 - 0.0 - - - - - - -
30/10:00am 30.7 NE 12 16 1014.8 - 0.0 - - - - - - -
30/09:30am 30.0 NNE 10 13 1014.9 - 0.0 - - - - - - -
30/09:00am 28.9 ENE 10 14 1015.0 - 0.0 - - - - - - -
30/08:30am 27.6 NE 10 13 1015.2 - 0.0 - - - - - - -
30/08:00am 26.6 ENE 7 11 1015.0 - 0.0 - - - - - - -
30/07:30am 24.5 ENE 5 6 1014.7 - 0.0 - - - - - - -
30/07:00am 20.0 E 4 6 1014.2 - 0.0 - - - - - - -
30/06:30am 18.1 CALM 0 3 1013.9 - 0.0 - - - - - - -
30/06:00am 17.9 E 2 5 1013.7 - 0.0 - - - - - - -
30/05:30am 18.1 CALM 0 3 1013.4 - 0.0 - - - - - - -
30/05:00am 18.7 E 2 6 1013.0 - 0.0 - - - - - - -
30/04:30am 18.7 E 2 6 1012.7 - 0.0 - - - - - - -
30/04:00am 18.8 CALM 0 0 1012.5 - 0.0 - - - - - - -
30/03:30am 19.2 CALM 0 0 1012.5 - 0.0 - - - - - - -
30/03:00am 19.9 CALM 0 0 1012.4 - 0.0 - - - - - - -
30/02:30am 20.2 CALM 0 0 1012.6 - 0.0 - - - - - - -
30/02:00am 20.6 ESE 1 3 1012.8 - 0.0 - - - - - - -
30/01:30am 21.2 CALM 0 0 1013.0 - 0.0 - - - - - - -
30/01:00am 21.8 E 1 3 1013.3 - 0.0 - - - - - - -
30/12:30am 22.3 E 4 5 1013.7 - 0.0 - - - - - - -
30/12:00am 22.3 ENE 4 4 1013.9 - 0.0 - - - - - - -
 
Date/Time
CST
Temp

°C
Wind Pressure Rain
since 9am
mm
Weather Cloud Vis
km
Sea
Height
m
Swell
Dir
 
Speed
knots
Gust
knots
hPa Trend Height
m
Period
s
Dir
29/11:30pm 22.5 E 3 5 1014.1 - 0.0 - - - - - - -
29/11:00pm 22.8 E 3 4 1014.3 - 0.0 - - - - - - -
29/10:30pm 23.3 ENE 4 4 1014.3 - 0.0 - - - - - - -
29/10:00pm 23.4 E 3 4 1014.2 - 0.0 - - - - - - -
29/09:30pm 23.7 CALM 0 0 1014.2 - 0.0 - - - - - - -
29/09:00pm 24.4 CALM 0 0 1013.8 - 0.0 - - - - - - -
29/08:30pm 24.7 ESE 1 3 1013.4 - 0.0 - - - - - - -
29/08:00pm 25.6 ENE 5 6 1013.2 - 0.0 - - - - - - -
29/07:30pm 26.0 NE 6 8 1012.9 - 0.0 - - - - - - -
29/07:00pm 26.4 ENE 7 10 1012.5 - 0.0 - - - - - - -
29/06:30pm 26.9 NE 7 10 1012.2 - 0.0 - - - - - - -
29/06:00pm 27.5 ENE 9 14 1011.8 - 0.0 - - - - - - -
29/05:30pm 28.3 ENE 9 12 1011.5 - 0.0 - Partly cloudy - - - - -
29/05:00pm 29.4 ENE 9 12 1011.1 - 0.0 - - - - - - -
29/04:30pm 29.7 NE 11 15 1011.0 - 0.0 - Partly cloudy - - - - -
29/04:00pm 29.3 NNE 10 13 1010.9 - 0.0 - Partly cloudy - - - - -
29/03:30pm 30.2 NE 8 13 1010.7 - 0.0 - Partly cloudy - - - - -
29/03:00pm 30.8 NE 8 13 1010.6 - 0.0 - Mostly clear - - - - -
29/02:30pm 30.1 NNE 9 13 1010.9 - 0.0 - Partly cloudy - - - - -
29/02:00pm 30.5 ENE 11 17 1011.2 - 0.0 - - - - - - -
29/01:30pm 31.4 NNE 10 16 1011.4 - 0.0 - - - - - - -
29/01:00pm 30.5 NNE 13 16 1011.7 - 0.0 - Partly cloudy - - - - -
29/12:30pm 30.2 NNE 10 15 1012.3 - 0.0 - Partly cloudy - - - - -
29/12:00pm 31.1 NE 8 15 1012.8 - 0.0 - - - - - - -
29/11:30am 30.8 NE 9 17 1013.3 - 0.0 - Partly cloudy - - - - -
29/11:00am 30.5 NNE 9 13 1013.8 - 0.0 - Partly cloudy - - - - -
29/10:30am 29.9 NNE 9 15 1014.1 - 0.0 - Partly cloudy - - - - -
29/10:00am 30.3 NNE 9 13 1014.1 - 0.0 - Partly cloudy - - - - -
29/09:30am 29.4 NNE 10 16 1014.1 - 0.0 - Partly cloudy - - - - -
29/09:00am 28.9 NNE 8 12 1014.1 - 0.0 - Mostly clear - - - - -
29/08:30am 27.6 NE 8 11 1014.0 - 0.0 - - - - - - -
29/08:00am 26.4 ENE 5 8 1013.9 - 0.0 - - - - - - -
29/07:30am 24.0 E 4 6 1013.6 - 0.0 - - - - - - -
29/07:00am 21.1 ENE 4 5 1013.1 - 0.0 - - - - - - -
29/06:30am 19.3 ENE 3 4 1012.7 - 0.0 - - - - - - -
29/06:00am 19.2 ENE 4 6 1012.4 - 0.0 - - - - - - -
29/05:30am 19.3 E 4 5 1011.9 - 0.0 - - - - - - -
29/05:00am 19.5 ENE 2 4 1011.4 - 0.0 - - - - - - -
29/04:30am 19.0 E 5 5 1011.0 - 0.0 - - - - - - -
29/04:00am 19.7 E 3 5 1010.8 - 0.0 - - - - - - -
29/03:30am 20.3 E 4 5 1010.8 - 0.0 - - - - - - -
29/03:00am 20.6 CALM 0 0 1010.9 - 0.0 - - - - - - -
29/02:30am 20.4 ENE 3 5 1011.0 - 0.0 - - - - - - -
29/02:00am 21.0 ENE 3 4 1011.2 - 0.0 - - - - - - -
29/01:30am 21.1 CALM 0 0 1011.7 - 0.0 - - - - - - -
29/01:00am 21.4 CALM 0 0 1011.9 - 0.0 - - - - - - -
29/12:30am 21.5 CALM 0 0 1012.0 - 0.0 - - - - - - -
29/12:00am 21.8 CALM 0 0 1012.1 - 0.0 - - - - - - -
 
Date/Time
CST
Temp

°C
Wind Pressure Rain
since 9am
mm
Weather Cloud Vis
km
Sea
Height
m
Swell
Dir
 
Speed
knots
Gust
knots
hPa Trend Height
m
Period
s
Dir
28/11:30pm 21.9 CALM 0 0 1012.2 - 0.0 - - - - - - -
28/11:00pm 22.2 E 4 5 1012.3 - 0.0 - - - - - - -
28/10:30pm 22.3 E 4 4 1012.3 - 0.0 - - - - - - -
28/10:00pm 22.6 E 3 4 1012.4 - 0.0 - - - - - - -
28/09:30pm 23.7 E 4 5 1012.3 - 0.0 - - - - - - -
28/09:00pm 24.4 NE 4 5 1012.2 - 0.0 - - 10 - - - -
28/08:30pm 25.1 E 6 7 1012.1 - 0.0 - - 10 - - - -
28/08:00pm 25.6 ENE 7 8 1011.9 - 0.0 - - 10 - - - -

Other Formats:

Comma delimited format used in spreadsheet applications
http://www.bom.gov.au/fwo/IDD60701/IDD60701.94153.axf

JavaScript Object Notation format (JSON) in row-major order
http://www.bom.gov.au/fwo/IDD60701/IDD60701.94153.json